createdAt,value
2023-03-13T00:01:26.846Z,97872.22
2023-03-13T00:03:55.570Z,97872.53
2023-03-13T00:09:00.719Z,97879.84
2023-03-13T00:11:28.086Z,97876.50
2023-03-13T00:13:56.801Z,97874.25
2023-03-13T00:16:24.141Z,97863.13
2023-03-13T00:18:53.176Z,97869.25
2023-03-13T00:21:22.087Z,97867.44
2023-03-13T00:23:49.368Z,97864.34
2023-03-13T00:26:18.762Z,97865.50
2023-03-13T00:28:46.168Z,97865.59
2023-03-13T00:31:12.774Z,97867.53
2023-03-13T00:33:41.580Z,97863.47
2023-03-13T00:36:11.725Z,97860.03
2023-03-13T00:38:38.672Z,97851.28
2023-03-13T00:41:06.504Z,97857.84
2023-03-13T00:43:35.323Z,97851.56
2023-03-13T00:46:02.389Z,97855.03
2023-03-13T00:48:29.447Z,97842.56
2023-03-13T00:50:56.116Z,97846.91
2023-03-13T00:53:22.906Z,97831.53
2023-03-13T00:55:54.804Z,97837.16
2023-03-13T00:58:22.360Z,97843.31
2023-03-13T01:00:48.949Z,97830.09
2023-03-13T01:03:15.745Z,97823.09
2023-03-13T01:05:42.783Z,97825.13
2023-03-13T01:08:09.505Z,97819.94
2023-03-13T01:10:36.074Z,97812.53
2023-03-13T01:13:04.964Z,97813.88
2023-03-13T01:15:34.838Z,97803.06
2023-03-13T01:18:01.514Z,97798.31
2023-03-13T01:20:29.996Z,97794.81
2023-03-13T01:22:56.746Z,97795.22
2023-03-13T01:31:19.307Z,97778.97
2023-03-13T01:33:48.057Z,97778.25
2023-03-13T01:36:15.053Z,97761.91
2023-03-13T01:38:41.789Z,97762.72
2023-03-13T01:41:11.214Z,97768.19
2023-03-13T01:43:38.327Z,97751.97
2023-03-13T01:46:07.580Z,97745.75
2023-03-13T01:48:40.227Z,97747.34
2023-03-13T01:51:14.739Z,97741.50
2023-03-13T01:53:44.399Z,97736.03
2023-03-13T01:56:17.305Z,97734.50
2023-03-13T01:58:44.680Z,97728.97
2023-03-13T02:01:13.027Z,97724.41
2023-03-13T02:03:39.761Z,97719.72
2023-03-13T02:06:08.162Z,97719.72
2023-03-13T02:08:42.953Z,97714.75
2023-03-13T02:11:34.112Z,97710.94
2023-03-13T02:14:02.362Z,97701.25
2023-03-13T02:16:29.411Z,97695.88
2023-03-13T02:18:56.186Z,97690.81
2023-03-13T02:21:36.808Z,97686.97
2023-03-13T02:24:14.016Z,97684.59
2023-03-13T02:26:40.882Z,97683.09
2023-03-13T02:29:08.246Z,97686.63
2023-03-13T02:31:34.798Z,97693.28
2023-03-13T02:34:02.659Z,97692.09
2023-03-13T02:36:31.154Z,97681.63
2023-03-13T02:41:36.302Z,97668.44
2023-03-13T02:44:02.874Z,97673.16
2023-03-13T02:46:29.479Z,97659.16
2023-03-13T02:48:57.242Z,97655.31
2023-03-13T02:51:40.123Z,97650.66
2023-03-13T02:54:12.138Z,97649.88
2023-03-13T02:56:42.202Z,97647.16
2023-03-13T02:59:08.724Z,97645.53
2023-03-13T03:01:35.333Z,97631.94
2023-03-13T03:04:01.912Z,97622.59
2023-03-13T03:06:28.566Z,97617.06
2023-03-13T03:08:55.084Z,97616.34
2023-03-13T03:11:21.625Z,97609.34
2023-03-13T03:13:48.180Z,97601.91
2023-03-13T03:16:18.797Z,97606.19
2023-03-13T03:18:45.618Z,97600.75
2023-03-13T03:21:12.814Z,97599.97
2023-03-13T03:23:39.453Z,97599.97
2023-03-13T03:26:07.187Z,97595.69
2023-03-13T03:28:33.852Z,97597.66
2023-03-13T03:31:08.512Z,97584.78
2023-03-13T03:33:35.425Z,97591.44
2023-03-13T03:36:05.054Z,97578.97
2023-03-13T03:38:31.842Z,97580.09
2023-03-13T03:40:58.680Z,97580.88
2023-03-13T03:43:25.329Z,97583.66
2023-03-13T03:45:52.013Z,97576.63
2023-03-13T03:48:18.664Z,97584.78
2023-03-13T03:50:45.239Z,97577.78
2023-03-13T03:53:11.838Z,97575.84
2023-03-13T03:55:38.682Z,97568.84
2023-03-13T03:58:05.251Z,97571.19
2023-03-13T04:00:32.125Z,97559.53
2023-03-13T04:02:58.773Z,97566.56
2023-03-13T04:05:25.334Z,97569.66
2023-03-13T04:07:51.887Z,97576.72
2023-03-13T04:10:18.670Z,97567.81
2023-03-13T04:12:45.273Z,97559.31
2023-03-13T04:15:12.184Z,97565.19
2023-03-13T04:17:39.006Z,97559.38
2023-03-13T04:20:06.730Z,97547.28
2023-03-13T04:22:33.505Z,97547.66
2023-03-13T04:25:00.664Z,97544.94
2023-03-13T04:27:27.265Z,97544.56
2023-03-13T04:29:53.816Z,97535.63
2023-03-13T04:32:20.358Z,97535.59
2023-03-13T04:34:46.906Z,97527.44
2023-03-13T04:37:13.509Z,97534.06
2023-03-13T04:39:40.078Z,97530.94
2023-03-13T04:42:06.788Z,97520.03
2023-03-13T04:44:33.473Z,97525.09
2023-03-13T04:47:00.040Z,97530.16
2023-03-13T04:49:26.691Z,97533.28
2023-03-13T04:51:53.259Z,97538.75
2023-03-13T04:56:58.563Z,97525.47
2023-03-13T04:59:25.125Z,97537.97
2023-03-13T05:01:51.786Z,97536.41
2023-03-13T05:06:49.637Z,97540.69
2023-03-13T05:09:16.209Z,97537.94
2023-03-13T05:11:42.817Z,97527.41
2023-03-13T05:14:11.599Z,97539.91
2023-03-13T05:16:38.899Z,97538.72
2023-03-13T05:21:42.959Z,97546.13
2023-03-13T05:24:09.691Z,97534.03
2023-03-13T05:26:36.225Z,97542.63
2023-03-13T05:29:02.992Z,97544.19
2023-03-13T05:31:29.599Z,97537.19
2023-03-13T05:33:56.254Z,97540.66
2023-03-13T05:36:22.805Z,97534.44
2023-03-13T05:38:49.336Z,97530.13
2023-03-13T05:41:15.974Z,97535.59
2023-03-13T05:43:42.497Z,97523.88
2023-03-13T05:46:09.190Z,97520.34
2023-03-13T05:48:35.759Z,97525.44
2023-03-13T05:51:02.326Z,97529.72
2023-03-13T05:53:28.884Z,97525.44
2023-03-13T05:55:55.421Z,97533.25
2023-03-13T05:58:22.024Z,97519.97
2023-03-13T06:00:48.918Z,97524.66
2023-03-13T06:03:15.548Z,97518.00
2023-03-13T06:05:42.104Z,97513.72
2023-03-13T06:08:08.684Z,97512.91
2023-03-13T06:13:19.818Z,97527.75
2023-03-13T06:15:54.785Z,97521.50
2023-03-13T06:18:21.895Z,97527.38
2023-03-13T06:20:49.753Z,97527.34
2023-03-13T06:23:17.017Z,97523.84
2023-03-13T06:25:47.830Z,97532.44
2023-03-13T06:28:14.985Z,97535.56
2023-03-13T06:30:41.692Z,97529.28
2023-03-13T06:33:08.371Z,97524.19
2023-03-13T06:35:46.171Z,97516.75
2023-03-13T06:38:19.993Z,97519.47
2023-03-13T06:40:47.969Z,97512.84
2023-03-13T06:43:14.542Z,97508.91
2023-03-13T06:45:41.067Z,97512.81
2023-03-13T06:50:39.634Z,97513.53
2023-03-13T06:53:06.242Z,97528.38
2023-03-13T06:55:33.240Z,97519.75
2023-03-13T06:58:00.042Z,97522.91
2023-03-13T07:00:26.738Z,97527.19
2023-03-13T07:02:54.090Z,97527.97
2023-03-13T07:05:20.740Z,97534.63
2023-03-13T07:07:47.340Z,97524.88
2023-03-13T07:10:14.357Z,97519.00
2023-03-13T07:12:41.078Z,97529.91
2023-03-13T07:15:08.059Z,97536.94
2023-03-13T07:17:34.907Z,97543.19
2023-03-13T07:20:01.700Z,97551.00
2023-03-13T07:22:28.325Z,97552.56
2023-03-13T07:24:54.871Z,97552.53
2023-03-13T07:27:21.536Z,97532.97
2023-03-13T07:29:48.421Z,97554.09
2023-03-13T07:32:15.298Z,97534.53
2023-03-13T07:34:44.889Z,97527.13
2023-03-13T07:37:16.042Z,97533.00
2023-03-13T07:39:43.886Z,97530.66
2023-03-13T07:42:12.020Z,97523.25
2023-03-13T07:44:38.859Z,97515.03
2023-03-13T07:47:05.789Z,97518.94
2023-03-13T07:49:32.545Z,97519.69
2023-03-13T07:51:59.134Z,97514.59
2023-03-13T07:54:25.694Z,97498.16
2023-03-13T07:56:52.327Z,97502.81
2023-03-13T07:59:18.961Z,97500.47
2023-03-13T08:01:45.547Z,97501.28
2023-03-13T08:04:15.233Z,97492.66
2023-03-13T08:06:42.253Z,97482.81
2023-03-13T08:09:09.888Z,97478.50
2023-03-13T08:14:14.307Z,97483.47
2023-03-13T08:16:41.025Z,97472.06
2023-03-13T08:19:07.700Z,97469.28
2023-03-13T08:21:37.145Z,97450.09
2023-03-13T08:24:07.170Z,97440.22
2023-03-13T08:26:35.872Z,97434.28
2023-03-13T08:29:06.037Z,97431.06
2023-03-13T08:31:42.400Z,97423.50
2023-03-13T08:34:09.006Z,97428.13
2023-03-13T08:36:37.110Z,97450.00
2023-03-13T08:39:06.812Z,97441.69
2023-03-13T08:41:40.843Z,97451.44
2023-03-13T08:44:10.323Z,97445.47
2023-03-13T08:46:37.508Z,97436.31
2023-03-13T08:49:06.157Z,97442.91
2023-03-13T08:51:33.977Z,97442.91
2023-03-13T08:54:01.121Z,97443.75
2023-03-13T08:56:30.561Z,97441.78
2023-03-13T08:59:01.628Z,97459.00
2023-03-13T09:01:31.321Z,97458.59
2023-03-13T09:06:30.111Z,97463.63
2023-03-13T09:08:58.319Z,97462.03
2023-03-13T09:11:25.745Z,97461.94
2023-03-13T09:13:52.866Z,97449.31
2023-03-13T09:16:24.583Z,97457.59
2023-03-13T09:18:52.878Z,97455.94
2023-03-13T09:21:27.948Z,97461.06
2023-03-13T09:23:54.734Z,97450.06
2023-03-13T09:26:23.381Z,97451.16
2023-03-13T09:28:51.857Z,97456.94
2023-03-13T09:31:21.695Z,97447.03
2023-03-13T09:33:50.573Z,97451.31
2023-03-13T09:36:21.481Z,97448.03
2023-03-13T09:38:48.816Z,97462.09
2023-03-13T09:41:18.279Z,97458.88
2023-03-13T09:43:57.077Z,97457.63
2023-03-13T09:46:31.727Z,97465.03
2023-03-13T09:49:05.342Z,97466.69
2023-03-13T09:51:42.961Z,97460.41
2023-03-13T09:54:22.594Z,97460.84
2023-03-13T09:57:03.867Z,97458.19
2023-03-13T09:59:53.730Z,97459.25
2023-03-13T10:02:56.390Z,97449.97
2023-03-13T10:05:28.085Z,97438.66
2023-03-13T10:08:16.022Z,97436.13
2023-03-13T10:10:47.702Z,97431.78
2023-03-13T10:13:24.851Z,97417.66
2023-03-13T10:16:16.461Z,97418.84
2023-03-13T10:18:49.219Z,97418.38
2023-03-13T10:21:21.387Z,97418.66
2023-03-13T10:24:01.137Z,97405.91
2023-03-13T10:26:31.913Z,97400.13
2023-03-13T10:29:11.958Z,97394.09
2023-03-13T10:31:39.827Z,97391.44
2023-03-13T10:34:14.370Z,97401.91
2023-03-13T10:39:25.896Z,97389.00
2023-03-13T10:41:58.976Z,97392.53
2023-03-13T10:44:33.234Z,97388.31
2023-03-13T10:47:02.759Z,97380.94
2023-03-13T10:49:30.515Z,97372.22
2023-03-13T10:52:03.145Z,97370.53
2023-03-13T10:54:38.067Z,97369.44
2023-03-13T10:57:19.474Z,97350.63
2023-03-13T10:59:49.288Z,97362.56
2023-03-13T11:02:34.079Z,97356.91
2023-03-13T11:05:02.095Z,97357.59
2023-03-13T11:07:30.028Z,97350.66
2023-03-13T11:10:02.377Z,97349.31
2023-03-13T11:12:34.413Z,97343.31
2023-03-13T11:15:02.050Z,97356.00
2023-03-13T11:17:40.308Z,97347.94
2023-03-13T11:20:13.799Z,97329.69
2023-03-13T11:22:53.595Z,97337.53
2023-03-13T11:25:31.002Z,97331.03
2023-03-13T11:28:03.610Z,97322.88
2023-03-13T11:30:42.264Z,97311.88
2023-03-13T11:33:23.009Z,97303.28
2023-03-13T11:35:58.696Z,97299.84
2023-03-13T11:38:36.456Z,97291.94
2023-03-13T11:43:57.601Z,97267.75
2023-03-13T11:46:49.243Z,97268.69
2023-03-13T11:49:57.363Z,97251.09
2023-03-13T11:52:43.938Z,97249.25
2023-03-13T11:55:28.245Z,97240.28
2023-03-13T11:58:03.554Z,97239.22
2023-03-13T12:01:03.324Z,97224.88
2023-03-13T12:04:11.825Z,97213.53
2023-03-13T12:09:44.734Z,97206.75
2023-03-13T12:12:29.573Z,97196.28
2023-03-13T12:15:18.993Z,97193.34
2023-03-13T12:17:52.275Z,97184.84
2023-03-13T12:23:18.524Z,97178.34
2023-03-13T12:25:45.250Z,97172.53
2023-03-13T12:28:52.990Z,97152.63
2023-03-13T12:31:26.612Z,97153.13
2023-03-13T12:34:23.808Z,97131.25
2023-03-13T12:37:02.193Z,97124.94
2023-03-13T12:39:51.746Z,97119.63
2023-03-13T12:42:21.004Z,97110.13
2023-03-13T12:44:47.806Z,97095.88
2023-03-13T12:47:29.727Z,97095.78
2023-03-13T12:50:19.657Z,97084.31
2023-03-13T12:52:59.366Z,97076.09
2023-03-13T12:58:41.499Z,97055.09
2023-03-13T13:01:17.955Z,97035.38
2023-03-13T13:03:59.074Z,97030.00
2023-03-13T13:06:27.945Z,97022.41
2023-03-13T13:08:54.475Z,97015.50
2023-03-13T13:11:39.432Z,97014.41
2023-03-13T13:14:29.126Z,97006.31
2023-03-13T13:17:11.391Z,97005.84
2023-03-13T13:19:40.602Z,96987.28
2023-03-13T13:22:38.076Z,96989.59
2023-03-13T13:25:05.001Z,96979.81
2023-03-13T13:27:31.548Z,96969.38
2023-03-13T13:30:00.238Z,96948.75
2023-03-13T13:32:39.494Z,96962.31
2023-03-13T13:35:20.735Z,96959.97
2023-03-13T13:37:49.505Z,96941.00
2023-03-13T13:40:16.591Z,96945.19
2023-03-13T13:43:04.286Z,96943.44
2023-03-13T13:45:36.802Z,96934.25
2023-03-13T13:48:24.475Z,96920.13
2023-03-13T13:51:12.672Z,96908.44
2023-03-13T13:53:45.121Z,96913.53
2023-03-13T13:59:25.834Z,96905.00
2023-03-13T14:02:15.541Z,96897.06
2023-03-13T14:04:52.487Z,96891.97
2023-03-13T14:07:28.134Z,96891.66
2023-03-13T14:10:16.742Z,96888.13
2023-03-13T14:12:57.275Z,96881.69
2023-03-13T14:15:26.498Z,96864.47
2023-03-13T14:17:55.993Z,96869.06
2023-03-13T14:20:29.085Z,96867.41
2023-03-13T14:23:01.596Z,96861.41
2023-03-13T14:25:40.681Z,96851.69
2023-03-13T14:28:18.245Z,96846.16
2023-03-13T14:30:45.414Z,96847.53
2023-03-13T14:33:12.489Z,96834.28
2023-03-13T14:35:40.821Z,96822.53
2023-03-13T14:38:07.458Z,96824.88
2023-03-13T14:40:39.029Z,96821.38
2023-03-13T14:43:19.333Z,96811.78
2023-03-13T14:45:46.124Z,96797.56
2023-03-13T14:48:27.091Z,96797.06
2023-03-13T14:51:14.796Z,96786.56
2023-03-13T14:53:57.628Z,96789.34
2023-03-13T14:56:42.326Z,96774.88
2023-03-13T14:59:15.049Z,96770.00
2023-03-13T15:01:41.673Z,96759.59
2023-03-13T15:04:08.385Z,96753.69
2023-03-13T15:06:35.294Z,96750.44
2023-03-13T15:09:14.179Z,96746.03
2023-03-13T15:11:54.875Z,96749.16
2023-03-13T15:14:37.032Z,96732.50
2023-03-13T15:17:04.492Z,96716.94
2023-03-13T15:19:32.373Z,96715.97
2023-03-13T15:21:59.094Z,96710.41
2023-03-13T15:24:25.824Z,96686.91
2023-03-13T15:26:52.416Z,96687.06
2023-03-13T15:29:20.293Z,96676.63
2023-03-13T15:31:47.202Z,96665.63
2023-03-13T15:34:15.128Z,96669.38
2023-03-13T15:36:42.684Z,96656.00
2023-03-13T15:39:22.554Z,96651.78
2023-03-13T15:41:49.146Z,96641.63
2023-03-13T15:44:15.692Z,96640.78
2023-03-13T15:46:42.323Z,96637.59
2023-03-13T15:49:13.081Z,96635.09
2023-03-13T15:51:39.759Z,96629.84
2023-03-13T15:54:06.432Z,96635.59
2023-03-13T15:56:36.873Z,96625.56
2023-03-13T15:59:12.859Z,96620.16
2023-03-13T16:01:40.112Z,96619.56
2023-03-13T16:06:38.157Z,96598.00
2023-03-13T16:09:06.748Z,96606.47
2023-03-13T16:11:33.846Z,96595.72
2023-03-13T16:16:37.340Z,96586.66
2023-03-13T16:19:04.587Z,96584.19
2023-03-13T16:21:34.742Z,96574.53
2023-03-13T16:24:02.118Z,96561.06
2023-03-13T16:26:31.851Z,96574.81
2023-03-13T16:28:58.943Z,96558.25
2023-03-13T16:31:28.579Z,96558.13
2023-03-13T16:33:56.749Z,96555.44
2023-03-13T16:36:25.998Z,96556.56
2023-03-13T16:38:52.869Z,96559.88
2023-03-13T16:41:22.320Z,96553.66
2023-03-13T16:43:49.350Z,96553.03
2023-03-13T16:46:20.972Z,96552.19
2023-03-13T16:48:48.945Z,96547.94
2023-03-13T16:51:19.469Z,96546.09
2023-03-13T16:53:48.620Z,96547.41
2023-03-13T16:56:36.086Z,96554.50
2023-03-13T16:59:07.598Z,96551.78
2023-03-13T17:01:35.019Z,96545.22
2023-03-13T17:04:01.642Z,96536.06
2023-03-13T17:06:32.986Z,96528.25
2023-03-13T17:09:02.214Z,96522.56
2023-03-13T17:11:29.350Z,96522.88
2023-03-13T17:13:56.247Z,96515.09
2023-03-13T17:16:25.777Z,96513.09
2023-03-13T17:18:53.788Z,96514.66
2023-03-13T17:23:55.672Z,96501.63
2023-03-13T17:26:24.752Z,96508.25
2023-03-13T17:28:54.625Z,96499.19
2023-03-13T17:31:22.372Z,96495.22
2023-03-13T17:33:49.290Z,96494.31
2023-03-13T17:36:22.057Z,96488.91
2023-03-13T17:38:51.619Z,96482.63
2023-03-13T17:41:20.768Z,96471.88
2023-03-13T17:43:47.669Z,96467.28
2023-03-13T17:46:30.361Z,96465.47
2023-03-13T17:48:56.896Z,96465.47
2023-03-13T17:54:05.074Z,96446.31
2023-03-13T17:56:36.424Z,96441.56
2023-03-13T17:59:04.386Z,96431.38
2023-03-13T18:01:32.648Z,96420.81
2023-03-13T18:03:59.794Z,96425.28
2023-03-13T18:09:08.187Z,96411.03
2023-03-13T18:11:36.526Z,96403.50
2023-03-13T18:14:04.106Z,96400.75
2023-03-13T18:16:37.841Z,96392.94
2023-03-13T18:19:06.135Z,96384.19
2023-03-13T18:21:33.134Z,96386.50
2023-03-13T18:23:59.763Z,96372.09
2023-03-13T18:26:31.570Z,96371.78
2023-03-13T18:29:02.423Z,96377.91
2023-03-13T18:31:32.041Z,96382.34
2023-03-13T18:33:59.478Z,96381.44
2023-03-13T18:36:27.382Z,96409.75
2023-03-13T18:38:54.817Z,96477.16
2023-03-13T18:41:21.749Z,96526.41
2023-03-13T18:43:49.435Z,96510.44
2023-03-13T18:46:28.112Z,96478.84
2023-03-13T18:48:55.486Z,96491.78
2023-03-13T18:51:25.215Z,96564.47
2023-03-13T18:53:53.314Z,96615.81
2023-03-13T18:56:29.522Z,96635.19
2023-03-13T18:58:56.553Z,96637.75
2023-03-13T19:01:26.520Z,96559.66
2023-03-13T19:03:53.810Z,96571.41
2023-03-13T19:06:25.748Z,96535.50
2023-03-13T19:08:55.121Z,96489.97
2023-03-13T19:11:27.696Z,96513.66
2023-03-13T19:13:54.476Z,96549.63
2023-03-13T19:16:31.034Z,96527.59
2023-03-13T19:18:58.420Z,96493.34
2023-03-13T19:21:30.261Z,96486.94
2023-03-13T19:23:58.434Z,96499.34
2023-03-13T19:26:31.733Z,96503.44
2023-03-13T19:28:59.461Z,96498.44
2023-03-13T19:31:26.675Z,96491.25
2023-03-13T19:33:54.517Z,96501.69
2023-03-13T19:39:01.014Z,96515.75
2023-03-13T19:41:28.043Z,96531.28
2023-03-13T19:43:54.583Z,96552.97
2023-03-13T19:46:29.012Z,96549.09
2023-03-13T19:49:00.644Z,96569.59
2023-03-13T19:51:29.261Z,96624.16
2023-03-13T19:53:56.354Z,96662.47
2023-03-13T19:56:25.552Z,96656.56
2023-03-13T19:58:57.046Z,96639.88
2023-03-13T20:01:23.838Z,96618.00
2023-03-13T20:03:50.433Z,96636.75
2023-03-13T20:09:00.386Z,96706.75
2023-03-13T20:11:28.350Z,96779.53
2023-03-13T20:13:55.418Z,96787.00
2023-03-13T20:16:22.963Z,96795.78
2023-03-13T20:18:49.993Z,96805.47
2023-03-13T20:21:17.507Z,96800.09
2023-03-13T20:23:47.418Z,96806.50
2023-03-13T20:26:16.550Z,96837.88
2023-03-13T20:28:45.763Z,96852.94
2023-03-13T20:31:13.517Z,96873.75
2023-03-13T20:33:43.311Z,96876.16
2023-03-13T20:36:12.819Z,96895.59
2023-03-13T20:38:39.971Z,96887.47
2023-03-13T20:41:07.505Z,96878.25
2023-03-13T20:43:35.484Z,96878.69
2023-03-13T20:46:02.394Z,96908.34
2023-03-13T20:48:29.538Z,96906.00
2023-03-13T20:50:58.339Z,96901.75
2023-03-13T20:53:26.075Z,96908.34
2023-03-13T20:55:54.576Z,96900.09
2023-03-13T21:00:52.475Z,96903.53
2023-03-13T21:03:19.602Z,96883.22
2023-03-13T21:05:46.217Z,96880.53
2023-03-13T21:08:12.752Z,96873.50
2023-03-13T21:10:40.714Z,96876.41
2023-03-13T21:13:09.225Z,96882.13
2023-03-13T21:15:35.961Z,96883.72
2023-03-13T21:18:02.718Z,96881.75
2023-03-13T21:20:29.547Z,96863.06
2023-03-13T21:22:56.436Z,96833.88
2023-03-13T21:25:23.456Z,96850.75
2023-03-13T21:27:50.481Z,96905.53
2023-03-13T21:30:20.244Z,96916.47
2023-03-13T21:32:47.561Z,96919.66
2023-03-13T21:35:15.518Z,96917.75
2023-03-13T21:37:42.934Z,96925.94
2023-03-13T21:42:41.883Z,96903.38
2023-03-13T21:45:09.164Z,96883.41
2023-03-13T21:47:38.600Z,96847.16
2023-03-13T21:52:41.358Z,96821.00
2023-03-13T21:55:11.949Z,96807.28
2023-03-13T21:57:39.115Z,96816.31
2023-03-13T22:02:42.500Z,96822.19
2023-03-13T22:05:09.461Z,96808.44
2023-03-13T22:07:36.440Z,96787.75
2023-03-13T22:10:03.542Z,96774.91
2023-03-13T22:12:30.133Z,96750.91
2023-03-13T22:14:57.817Z,96733.16
2023-03-13T22:20:02.416Z,96700.34
2023-03-13T22:22:29.639Z,96698.41
2023-03-13T22:24:56.195Z,96701.06
2023-03-13T22:27:24.273Z,96729.19
2023-03-13T22:29:51.103Z,96746.75
2023-03-13T22:32:17.717Z,96735.16
2023-03-13T22:37:21.909Z,96682.50
2023-03-13T22:39:50.135Z,96692.69
2023-03-13T22:42:16.718Z,96688.78
2023-03-13T22:44:43.252Z,96661.44
2023-03-13T22:47:09.794Z,96647.88
2023-03-13T22:49:36.322Z,96641.22
2023-03-13T22:52:03.492Z,96650.59
2023-03-13T22:54:30.372Z,96658.44
2023-03-13T22:56:57.162Z,96661.19
2023-03-13T22:59:23.719Z,96670.00
2023-03-13T23:01:50.274Z,96690.31
2023-03-13T23:04:16.831Z,96706.84
2023-03-13T23:06:43.412Z,96712.91
2023-03-13T23:09:10.305Z,96717.22
2023-03-13T23:11:36.954Z,96719.91
2023-03-13T23:14:03.813Z,96725.75
2023-03-13T23:16:30.624Z,96738.63
2023-03-13T23:18:57.258Z,96737.47
2023-03-13T23:21:24.023Z,96734.78
2023-03-13T23:23:53.856Z,96734.34
2023-03-13T23:26:20.477Z,96745.28
2023-03-13T23:28:47.042Z,96752.25
2023-03-13T23:31:19.723Z,96730.16
2023-03-13T23:33:47.126Z,96707.50
2023-03-13T23:36:19.079Z,96683.88
2023-03-13T23:38:49.738Z,96686.22
2023-03-13T23:41:16.309Z,96679.53
2023-03-13T23:43:42.908Z,96688.97
2023-03-13T23:46:21.877Z,96699.09
2023-03-13T23:48:48.458Z,96717.78
2023-03-13T23:51:15.114Z,96727.53
2023-03-13T23:53:43.334Z,96766.88
2023-03-13T23:56:11.385Z,96753.50
2023-03-13T23:58:38.331Z,96747.34
